sensor_id;sensor_type;location;lat;lon;timestamp;temperature;humidity
19220;DHT22;9744;49.364;7.484;2023-02-15T00:02:02;6.70;99.90
19220;DHT22;9744;49.364;7.484;2023-02-15T00:04:30;6.60;99.90
19220;DHT22;9744;49.364;7.484;2023-02-15T00:07:24;6.50;99.90
19220;DHT22;9744;49.364;7.484;2023-02-15T00:09:51;6.50;99.90
19220;DHT22;9744;49.364;7.484;2023-02-15T00:12:18;6.50;99.90
19220;DHT22;9744;49.364;7.484;2023-02-15T00:14:47;6.40;99.90
19220;DHT22;9744;49.364;7.484;2023-02-15T00:17:14;6.50;99.90
19220;DHT22;9744;49.364;7.484;2023-02-15T00:19:41;6.50;99.90
19220;DHT22;9744;49.364;7.484;2023-02-15T00:22:08;6.50;99.90
19220;DHT22;9744;49.364;7.484;2023-02-15T00:24:37;6.40;99.90
19220;DHT22;9744;49.364;7.484;2023-02-15T00:27:04;6.40;99.90
19220;DHT22;9744;49.364;7.484;2023-02-15T00:29:31;6.40;99.90
19220;DHT22;9744;49.364;7.484;2023-02-15T00:32:07;6.30;99.90
19220;DHT22;9744;49.364;7.484;2023-02-15T00:34:34;6.40;99.90
19220;DHT22;9744;49.364;7.484;2023-02-15T00:37:01;6.40;99.90
19220;DHT22;9744;49.364;7.484;2023-02-15T00:39:28;6.40;99.90
19220;DHT22;9744;49.364;7.484;2023-02-15T00:41:57;6.40;99.90
19220;DHT22;9744;49.364;7.484;2023-02-15T00:44:24;6.40;99.90
19220;DHT22;9744;49.364;7.484;2023-02-15T00:46:51;6.40;99.90
19220;DHT22;9744;49.364;7.484;2023-02-15T00:49:20;6.40;99.90
19220;DHT22;9744;49.364;7.484;2023-02-15T00:51:47;6.30;99.90
19220;DHT22;9744;49.364;7.484;2023-02-15T00:54:14;6.30;99.90
19220;DHT22;9744;49.364;7.484;2023-02-15T00:56:41;6.40;99.90
19220;DHT22;9744;49.364;7.484;2023-02-15T00:59:10;6.30;99.90
19220;DHT22;9744;49.364;7.484;2023-02-15T01:01:37;6.30;99.90
19220;DHT22;9744;49.364;7.484;2023-02-15T01:04:04;6.30;99.90
19220;DHT22;9744;49.364;7.484;2023-02-15T01:06:31;6.20;99.90
19220;DHT22;9744;49.364;7.484;2023-02-15T01:08:59;6.20;99.90
19220;DHT22;9744;49.364;7.484;2023-02-15T01:11:26;6.20;99.90
19220;DHT22;9744;49.364;7.484;2023-02-15T01:13:55;6.20;99.90
19220;DHT22;9744;49.364;7.484;2023-02-15T01:16:25;6.20;99.90
19220;DHT22;9744;49.364;7.484;2023-02-15T01:18:52;6.20;99.90
19220;DHT22;9744;49.364;7.484;2023-02-15T01:21:22;6.20;99.90
19220;DHT22;9744;49.364;7.484;2023-02-15T01:23:49;6.20;99.90
19220;DHT22;9744;49.364;7.484;2023-02-15T01:26:17;6.20;99.90
19220;DHT22;9744;49.364;7.484;2023-02-15T01:28:45;6.10;99.90
19220;DHT22;9744;49.364;7.484;2023-02-15T01:31:14;6.10;99.90
19220;DHT22;9744;49.364;7.484;2023-02-15T01:33:42;6.10;99.90
19220;DHT22;9744;49.364;7.484;2023-02-15T01:36:10;6.10;99.90
19220;DHT22;9744;49.364;7.484;2023-02-15T01:38:38;6.10;99.90
19220;DHT22;9744;49.364;7.484;2023-02-15T01:41:07;6.10;99.90
19220;DHT22;9744;49.364;7.484;2023-02-15T01:43:51;6.00;99.90
19220;DHT22;9744;49.364;7.484;2023-02-15T01:46:22;5.90;99.90
19220;DHT22;9744;49.364;7.484;2023-02-15T01:48:55;5.80;99.90
19220;DHT22;9744;49.364;7.484;2023-02-15T01:51:25;5.80;99.90
19220;DHT22;9744;49.364;7.484;2023-02-15T01:54:00;5.70;99.90
19220;DHT22;9744;49.364;7.484;2023-02-15T01:56:30;5.80;99.90
19220;DHT22;9744;49.364;7.484;2023-02-15T01:59:03;5.80;99.90
19220;DHT22;9744;49.364;7.484;2023-02-15T02:01:31;5.80;99.90
19220;DHT22;9744;49.364;7.484;2023-02-15T02:04:04;5.80;99.90
19220;DHT22;9744;49.364;7.484;2023-02-15T02:06:33;5.90;99.90
19220;DHT22;9744;49.364;7.484;2023-02-15T02:09:05;5.90;99.90
19220;DHT22;9744;49.364;7.484;2023-02-15T02:11:33;5.80;99.90
19220;DHT22;9744;49.364;7.484;2023-02-15T02:14:01;5.80;99.90
19220;DHT22;9744;49.364;7.484;2023-02-15T02:16:35;5.80;99.90
19220;DHT22;9744;49.364;7.484;2023-02-15T02:19:27;5.80;99.90
19220;DHT22;9744;49.364;7.484;2023-02-15T02:25:29;5.80;99.90
19220;DHT22;9744;49.364;7.484;2023-02-15T02:28:30;5.80;99.90
19220;DHT22;9744;49.364;7.484;2023-02-15T02:31:20;5.70;99.90
19220;DHT22;9744;49.364;7.484;2023-02-15T02:34:00;5.80;99.90
19220;DHT22;9744;49.364;7.484;2023-02-15T02:36:34;5.70;99.90
19220;DHT22;9744;49.364;7.484;2023-02-15T02:39:12;5.70;99.90
19220;DHT22;9744;49.364;7.484;2023-02-15T02:41:52;5.70;99.90
19220;DHT22;9744;49.364;7.484;2023-02-15T02:44:24;5.70;99.90
19220;DHT22;9744;49.364;7.484;2023-02-15T02:46:56;5.70;99.90
19220;DHT22;9744;49.364;7.484;2023-02-15T02:49:33;5.70;99.90
19220;DHT22;9744;49.364;7.484;2023-02-15T02:52:01;5.70;99.90
19220;DHT22;9744;49.364;7.484;2023-02-15T02:54:30;5.70;99.90
19220;DHT22;9744;49.364;7.484;2023-02-15T02:57:00;5.60;99.90
19220;DHT22;9744;49.364;7.484;2023-02-15T02:59:31;5.60;99.90
19220;DHT22;9744;49.364;7.484;2023-02-15T03:02:04;5.50;99.90
19220;DHT22;9744;49.364;7.484;2023-02-15T03:04:37;5.50;99.90
19220;DHT22;9744;49.364;7.484;2023-02-15T03:07:07;5.50;99.90
19220;DHT22;9744;49.364;7.484;2023-02-15T03:09:37;5.50;99.90
19220;DHT22;9744;49.364;7.484;2023-02-15T03:12:10;5.50;99.90
19220;DHT22;9744;49.364;7.484;2023-02-15T03:14:43;5.40;99.90
19220;DHT22;9744;49.364;7.484;2023-02-15T03:17:12;5.40;99.90
19220;DHT22;9744;49.364;7.484;2023-02-15T03:19:44;5.40;99.90
19220;DHT22;9744;49.364;7.484;2023-02-15T03:22:14;5.30;99.90
19220;DHT22;9744;49.364;7.484;2023-02-15T03:24:49;5.30;99.90
19220;DHT22;9744;49.364;7.484;2023-02-15T03:27:23;5.30;99.90
19220;DHT22;9744;49.364;7.484;2023-02-15T03:29:55;5.30;99.90
19220;DHT22;9744;49.364;7.484;2023-02-15T03:32:24;5.30;99.90
19220;DHT22;9744;49.364;7.484;2023-02-15T03:34:53;5.30;99.90
19220;DHT22;9744;49.364;7.484;2023-02-15T03:37:26;5.30;99.90
19220;DHT22;9744;49.364;7.484;2023-02-15T03:39:58;5.40;99.90
19220;DHT22;9744;49.364;7.484;2023-02-15T03:42:50;5.20;99.90
19220;DHT22;9744;49.364;7.484;2023-02-15T03:45:24;5.30;99.90
19220;DHT22;9744;49.364;7.484;2023-02-15T03:47:52;5.30;99.90
19220;DHT22;9744;49.364;7.484;2023-02-15T03:50:26;5.20;99.90
19220;DHT22;9744;49.364;7.484;2023-02-15T03:53:19;5.20;99.90
19220;DHT22;9744;49.364;7.484;2023-02-15T03:55:47;5.20;99.90
19220;DHT22;9744;49.364;7.484;2023-02-15T03:58:15;5.20;99.90
19220;DHT22;9744;49.364;7.484;2023-02-15T04:01:05;5.10;99.90
19220;DHT22;9744;49.364;7.484;2023-02-15T04:03:54;5.10;99.90
19220;DHT22;9744;49.364;7.484;2023-02-15T04:06:25;5.10;99.90
19220;DHT22;9744;49.364;7.484;2023-02-15T04:08:52;5.00;99.90
19220;DHT22;9744;49.364;7.484;2023-02-15T04:11:37;5.10;99.90
19220;DHT22;9744;49.364;7.484;2023-02-15T04:14:04;5.00;99.90
19220;DHT22;9744;49.364;7.484;2023-02-15T04:16:51;5.10;99.90
19220;DHT22;9744;49.364;7.484;2023-02-15T04:19:17;5.00;99.90
19220;DHT22;9744;49.364;7.484;2023-02-15T04:22:04;5.00;99.90
19220;DHT22;9744;49.364;7.484;2023-02-15T04:24:48;5.00;99.90
19220;DHT22;9744;49.364;7.484;2023-02-15T04:27:33;5.00;99.90
19220;DHT22;9744;49.364;7.484;2023-02-15T04:30:00;5.00;99.90
19220;DHT22;9744;49.364;7.484;2023-02-15T04:32:28;5.00;99.90
19220;DHT22;9744;49.364;7.484;2023-02-15T04:34:55;5.00;99.90
19220;DHT22;9744;49.364;7.484;2023-02-15T04:37:24;4.90;99.90
19220;DHT22;9744;49.364;7.484;2023-02-15T04:39:51;4.90;99.90
19220;DHT22;9744;49.364;7.484;2023-02-15T04:42:18;4.80;99.90
19220;DHT22;9744;49.364;7.484;2023-02-15T04:44:45;4.40;99.90
19220;DHT22;9744;49.364;7.484;2023-02-15T04:47:12;4.50;99.90
19220;DHT22;9744;49.364;7.484;2023-02-15T04:49:39;4.50;99.90
19220;DHT22;9744;49.364;7.484;2023-02-15T04:52:06;4.60;99.90
19220;DHT22;9744;49.364;7.484;2023-02-15T04:54:35;4.60;99.90
19220;DHT22;9744;49.364;7.484;2023-02-15T04:57:04;4.50;99.90
19220;DHT22;9744;49.364;7.484;2023-02-15T04:59:31;4.50;99.90
19220;DHT22;9744;49.364;7.484;2023-02-15T05:01:58;4.50;99.90
19220;DHT22;9744;49.364;7.484;2023-02-15T05:04:26;4.30;99.90
19220;DHT22;9744;49.364;7.484;2023-02-15T05:06:53;4.30;99.90
19220;DHT22;9744;49.364;7.484;2023-02-15T05:09:20;4.10;99.90
19220;DHT22;9744;49.364;7.484;2023-02-15T05:11:49;4.10;99.90
19220;DHT22;9744;49.364;7.484;2023-02-15T05:14:16;4.20;99.90
19220;DHT22;9744;49.364;7.484;2023-02-15T05:16:43;4.30;99.90
19220;DHT22;9744;49.364;7.484;2023-02-15T05:19:10;4.30;99.90
19220;DHT22;9744;49.364;7.484;2023-02-15T05:21:37;4.30;99.90
19220;DHT22;9744;49.364;7.484;2023-02-15T05:24:05;4.30;99.90
19220;DHT22;9744;49.364;7.484;2023-02-15T05:26:54;4.40;99.90
19220;DHT22;9744;49.364;7.484;2023-02-15T05:29:39;4.40;99.90
19220;DHT22;9744;49.364;7.484;2023-02-15T05:32:06;4.50;99.90
19220;DHT22;9744;49.364;7.484;2023-02-15T05:34:33;4.40;99.90
19220;DHT22;9744;49.364;7.484;2023-02-15T05:37:00;4.50;99.90
19220;DHT22;9744;49.364;7.484;2023-02-15T05:39:28;4.50;99.90
19220;DHT22;9744;49.364;7.484;2023-02-15T05:41:58;3.70;99.90
19220;DHT22;9744;49.364;7.484;2023-02-15T05:44:25;3.10;99.90
19220;DHT22;9744;49.364;7.484;2023-02-15T05:46:53;3.40;99.90
19220;DHT22;9744;49.364;7.484;2023-02-15T05:49:20;3.80;99.90
19220;DHT22;9744;49.364;7.484;2023-02-15T05:51:47;4.00;99.90
19220;DHT22;9744;49.364;7.484;2023-02-15T05:54:14;4.10;99.90
19220;DHT22;9744;49.364;7.484;2023-02-15T05:56:41;4.20;99.90
19220;DHT22;9744;49.364;7.484;2023-02-15T05:59:10;4.10;99.90
19220;DHT22;9744;49.364;7.484;2023-02-15T06:01:38;4.30;99.90
19220;DHT22;9744;49.364;7.484;2023-02-15T06:04:05;4.20;99.90
19220;DHT22;9744;49.364;7.484;2023-02-15T06:06:32;3.70;99.90
19220;DHT22;9744;49.364;7.484;2023-02-15T06:09:02;3.60;99.90
19220;DHT22;9744;49.364;7.484;2023-02-15T06:11:29;3.80;99.90
19220;DHT22;9744;49.364;7.484;2023-02-15T06:13:56;3.40;99.90
19220;DHT22;9744;49.364;7.484;2023-02-15T06:16:25;3.30;99.90
19220;DHT22;9744;49.364;7.484;2023-02-15T06:18:52;3.10;99.90
19220;DHT22;9744;49.364;7.484;2023-02-15T06:21:19;3.40;99.90
19220;DHT22;9744;49.364;7.484;2023-02-15T06:23:46;3.60;99.90
19220;DHT22;9744;49.364;7.484;2023-02-15T06:26:13;3.70;99.90
19220;DHT22;9744;49.364;7.484;2023-02-15T06:28:41;3.80;99.90
19220;DHT22;9744;49.364;7.484;2023-02-15T06:31:08;3.70;99.90
19220;DHT22;9744;49.364;7.484;2023-02-15T06:33:36;4.00;99.90
19220;DHT22;9744;49.364;7.484;2023-02-15T06:36:04;3.90;99.90
19220;DHT22;9744;49.364;7.484;2023-02-15T06:38:33;3.90;99.90
19220;DHT22;9744;49.364;7.484;2023-02-15T06:41:00;3.90;99.90
19220;DHT22;9744;49.364;7.484;2023-02-15T06:43:27;3.80;99.90
19220;DHT22;9744;49.364;7.484;2023-02-15T06:45:54;3.70;99.90
19220;DHT22;9744;49.364;7.484;2023-02-15T06:48:21;3.60;99.90
19220;DHT22;9744;49.364;7.484;2023-02-15T06:50:50;3.10;99.90
19220;DHT22;9744;49.364;7.484;2023-02-15T06:53:17;3.30;99.90
19220;DHT22;9744;49.364;7.484;2023-02-15T06:55:44;2.70;99.90
19220;DHT22;9744;49.364;7.484;2023-02-15T06:58:11;2.60;99.90
19220;DHT22;9744;49.364;7.484;2023-02-15T07:00:38;2.40;99.90
19220;DHT22;9744;49.364;7.484;2023-02-15T07:03:06;2.60;99.90
19220;DHT22;9744;49.364;7.484;2023-02-15T07:05:33;2.80;99.90
19220;DHT22;9744;49.364;7.484;2023-02-15T07:08:02;2.40;99.90
19220;DHT22;9744;49.364;7.484;2023-02-15T07:10:29;1.90;99.90
19220;DHT22;9744;49.364;7.484;2023-02-15T07:12:57;2.00;99.90
19220;DHT22;9744;49.364;7.484;2023-02-15T07:15:23;1.80;99.90
19220;DHT22;9744;49.364;7.484;2023-02-15T07:17:50;1.70;99.90
19220;DHT22;9744;49.364;7.484;2023-02-15T07:20:19;2.00;99.90
19220;DHT22;9744;49.364;7.484;2023-02-15T07:22:47;2.10;99.90
19220;DHT22;9744;49.364;7.484;2023-02-15T07:25:16;2.40;99.90
19220;DHT22;9744;49.364;7.484;2023-02-15T07:27:44;2.60;99.90
19220;DHT22;9744;49.364;7.484;2023-02-15T07:30:13;2.40;99.90
19220;DHT22;9744;49.364;7.484;2023-02-15T07:32:41;2.40;99.90
19220;DHT22;9744;49.364;7.484;2023-02-15T07:35:22;2.40;99.90
19220;DHT22;9744;49.364;7.484;2023-02-15T07:37:49;2.40;99.90
19220;DHT22;9744;49.364;7.484;2023-02-15T07:40:18;2.70;99.90
19220;DHT22;9744;49.364;7.484;2023-02-15T07:42:45;3.00;99.90
19220;DHT22;9744;49.364;7.484;2023-02-15T07:45:12;2.90;99.90
19220;DHT22;9744;49.364;7.484;2023-02-15T07:47:39;3.00;99.90
19220;DHT22;9744;49.364;7.484;2023-02-15T07:50:07;3.20;99.90
19220;DHT22;9744;49.364;7.484;2023-02-15T07:52:34;3.20;99.90
19220;DHT22;9744;49.364;7.484;2023-02-15T07:55:01;3.40;99.90
19220;DHT22;9744;49.364;7.484;2023-02-15T07:57:33;3.20;99.90
19220;DHT22;9744;49.364;7.484;2023-02-15T08:00:01;2.90;99.90
19220;DHT22;9744;49.364;7.484;2023-02-15T08:02:38;3.00;99.90
19220;DHT22;9744;49.364;7.484;2023-02-15T08:05:06;3.20;99.90
19220;DHT22;9744;49.364;7.484;2023-02-15T08:07:33;3.40;99.90
19220;DHT22;9744;49.364;7.484;2023-02-15T08:10:02;3.40;99.90
19220;DHT22;9744;49.364;7.484;2023-02-15T08:12:29;3.50;99.90
19220;DHT22;9744;49.364;7.484;2023-02-15T08:14:58;3.40;99.90
19220;DHT22;9744;49.364;7.484;2023-02-15T08:17:25;3.00;99.90
19220;DHT22;9744;49.364;7.484;2023-02-15T08:19:52;2.70;99.90
19220;DHT22;9744;49.364;7.484;2023-02-15T08:22:19;2.90;99.90
19220;DHT22;9744;49.364;7.484;2023-02-15T08:24:46;3.00;99.90
19220;DHT22;9744;49.364;7.484;2023-02-15T08:27:14;3.00;99.90
19220;DHT22;9744;49.364;7.484;2023-02-15T08:29:41;2.90;99.90
19220;DHT22;9744;49.364;7.484;2023-02-15T08:32:11;2.90;99.90
19220;DHT22;9744;49.364;7.484;2023-02-15T08:34:40;3.10;99.90
19220;DHT22;9744;49.364;7.484;2023-02-15T08:37:08;3.20;99.90
19220;DHT22;9744;49.364;7.484;2023-02-15T08:39:35;3.10;99.90
19220;DHT22;9744;49.364;7.484;2023-02-15T08:42:02;2.60;99.90
19220;DHT22;9744;49.364;7.484;2023-02-15T08:44:29;2.50;99.90
19220;DHT22;9744;49.364;7.484;2023-02-15T08:46:57;2.70;99.90
19220;DHT22;9744;49.364;7.484;2023-02-15T08:49:30;2.50;99.90
19220;DHT22;9744;49.364;7.484;2023-02-15T08:51:57;2.80;99.90
19220;DHT22;9744;49.364;7.484;2023-02-15T08:54:25;3.00;99.90
19220;DHT22;9744;49.364;7.484;2023-02-15T08:56:52;3.10;99.90
19220;DHT22;9744;49.364;7.484;2023-02-15T08:59:21;2.90;99.90
19220;DHT22;9744;49.364;7.484;2023-02-15T09:01:50;2.80;99.90
19220;DHT22;9744;49.364;7.484;2023-02-15T09:04:18;3.10;99.90
19220;DHT22;9744;49.364;7.484;2023-02-15T09:06:48;2.40;99.90
19220;DHT22;9744;49.364;7.484;2023-02-15T09:09:16;2.30;99.90
19220;DHT22;9744;49.364;7.484;2023-02-15T09:11:44;2.10;99.90
19220;DHT22;9744;49.364;7.484;2023-02-15T09:14:15;2.40;99.90
19220;DHT22;9744;49.364;7.484;2023-02-15T09:16:44;2.70;99.90
19220;DHT22;9744;49.364;7.484;2023-02-15T09:19:14;3.00;99.90
19220;DHT22;9744;49.364;7.484;2023-02-15T09:21:43;2.80;99.90
19220;DHT22;9744;49.364;7.484;2023-02-15T09:24:14;2.60;99.90
19220;DHT22;9744;49.364;7.484;2023-02-15T09:26:43;2.60;99.90
19220;DHT22;9744;49.364;7.484;2023-02-15T09:29:11;2.50;99.90
19220;DHT22;9744;49.364;7.484;2023-02-15T09:31:40;2.60;99.90
19220;DHT22;9744;49.364;7.484;2023-02-15T09:34:10;2.90;99.90
19220;DHT22;9744;49.364;7.484;2023-02-15T09:36:39;3.10;99.90
19220;DHT22;9744;49.364;7.484;2023-02-15T09:39:09;3.30;99.90
19220;DHT22;9744;49.364;7.484;2023-02-15T09:41:54;3.60;99.90
19220;DHT22;9744;49.364;7.484;2023-02-15T09:44:33;3.60;99.90
19220;DHT22;9744;49.364;7.484;2023-02-15T09:47:16;3.70;99.90
19220;DHT22;9744;49.364;7.484;2023-02-15T09:49:52;4.00;99.90
19220;DHT22;9744;49.364;7.484;2023-02-15T09:52:44;4.30;99.90
19220;DHT22;9744;49.364;7.484;2023-02-15T09:55:25;4.60;99.90
19220;DHT22;9744;49.364;7.484;2023-02-15T09:58:11;4.80;99.90
19220;DHT22;9744;49.364;7.484;2023-02-15T10:00:47;5.00;99.90
19220;DHT22;9744;49.364;7.484;2023-02-15T10:03:32;5.20;99.90
19220;DHT22;9744;49.364;7.484;2023-02-15T10:06:13;4.90;99.90
19220;DHT22;9744;49.364;7.484;2023-02-15T10:09:03;5.00;99.90
19220;DHT22;9744;49.364;7.484;2023-02-15T10:11:45;5.20;99.90
19220;DHT22;9744;49.364;7.484;2023-02-15T10:14:41;5.40;99.90
19220;DHT22;9744;49.364;7.484;2023-02-15T10:17:23;5.40;99.90
19220;DHT22;9744;49.364;7.484;2023-02-15T10:20:00;5.50;99.90
19220;DHT22;9744;49.364;7.484;2023-02-15T10:22:40;5.50;99.90
19220;DHT22;9744;49.364;7.484;2023-02-15T10:25:25;5.70;99.90
19220;DHT22;9744;49.364;7.484;2023-02-15T10:27:59;5.90;99.90
19220;DHT22;9744;49.364;7.484;2023-02-15T10:30:38;5.80;99.90
19220;DHT22;9744;49.364;7.484;2023-02-15T10:33:14;6.00;99.90
19220;DHT22;9744;49.364;7.484;2023-02-15T10:35:50;6.10;99.90
19220;DHT22;9744;49.364;7.484;2023-02-15T10:38:28;6.20;99.90
19220;DHT22;9744;49.364;7.484;2023-02-15T10:41:11;6.40;99.90
19220;DHT22;9744;49.364;7.484;2023-02-15T10:43:57;6.60;99.90
19220;DHT22;9744;49.364;7.484;2023-02-15T10:46:45;6.70;99.90
19220;DHT22;9744;49.364;7.484;2023-02-15T10:49:26;6.90;99.90
19220;DHT22;9744;49.364;7.484;2023-02-15T10:52:10;7.00;99.90
19220;DHT22;9744;49.364;7.484;2023-02-15T10:54:45;7.20;99.90
19220;DHT22;9744;49.364;7.484;2023-02-15T10:57:21;7.30;99.90
19220;DHT22;9744;49.364;7.484;2023-02-15T11:00:00;7.50;99.90
19220;DHT22;9744;49.364;7.484;2023-02-15T11:02:55;7.70;99.90
19220;DHT22;9744;49.364;7.484;2023-02-15T11:05:41;7.90;99.90
19220;DHT22;9744;49.364;7.484;2023-02-15T11:08:10;8.30;99.90
19220;DHT22;9744;49.364;7.484;2023-02-15T11:10:42;8.70;99.90
19220;DHT22;9744;49.364;7.484;2023-02-15T11:13:13;9.10;99.90
19220;DHT22;9744;49.364;7.484;2023-02-15T11:15:43;9.40;99.90
19220;DHT22;9744;49.364;7.484;2023-02-15T11:18:16;9.60;99.90
19220;DHT22;9744;49.364;7.484;2023-02-15T11:20:52;9.80;99.90
19220;DHT22;9744;49.364;7.484;2023-02-15T11:23:21;10.00;99.90
19220;DHT22;9744;49.364;7.484;2023-02-15T11:25:56;10.40;99.90
19220;DHT22;9744;49.364;7.484;2023-02-15T11:28:27;10.80;99.90
19220;DHT22;9744;49.364;7.484;2023-02-15T11:30:58;11.10;99.90
19220;DHT22;9744;49.364;7.484;2023-02-15T11:33:33;11.20;99.90
19220;DHT22;9744;49.364;7.484;2023-02-15T11:36:06;11.40;99.90
19220;DHT22;9744;49.364;7.484;2023-02-15T11:38:36;12.00;99.90
19220;DHT22;9744;49.364;7.484;2023-02-15T11:41:07;12.20;99.90
19220;DHT22;9744;49.364;7.484;2023-02-15T11:43:38;12.40;99.90
19220;DHT22;9744;49.364;7.484;2023-02-15T11:46:10;12.80;99.90
19220;DHT22;9744;49.364;7.484;2023-02-15T11:48:40;13.10;99.90
19220;DHT22;9744;49.364;7.484;2023-02-15T11:51:12;13.20;99.90
19220;DHT22;9744;49.364;7.484;2023-02-15T11:53:42;12.90;99.90
19220;DHT22;9744;49.364;7.484;2023-02-15T11:56:14;12.80;99.90
19220;DHT22;9744;49.364;7.484;2023-02-15T11:58:45;13.20;99.90
19220;DHT22;9744;49.364;7.484;2023-02-15T12:01:18;13.50;99.90
19220;DHT22;9744;49.364;7.484;2023-02-15T12:03:50;13.70;99.90
19220;DHT22;9744;49.364;7.484;2023-02-15T12:06:24;13.70;99.90
19220;DHT22;9744;49.364;7.484;2023-02-15T12:08:59;13.90;99.90
19220;DHT22;9744;49.364;7.484;2023-02-15T12:11:34;13.90;99.90
19220;DHT22;9744;49.364;7.484;2023-02-15T12:14:07;14.00;99.90
19220;DHT22;9744;49.364;7.484;2023-02-15T12:16:41;14.10;99.90
19220;DHT22;9744;49.364;7.484;2023-02-15T12:19:30;14.20;99.90
19220;DHT22;9744;49.364;7.484;2023-02-15T12:22:01;14.20;99.90
19220;DHT22;9744;49.364;7.484;2023-02-15T12:24:31;13.90;99.90
19220;DHT22;9744;49.364;7.484;2023-02-15T12:27:02;13.80;99.90
19220;DHT22;9744;49.364;7.484;2023-02-15T12:29:43;13.50;99.90
19220;DHT22;9744;49.364;7.484;2023-02-15T12:32:17;13.50;99.90
19220;DHT22;9744;49.364;7.484;2023-02-15T12:35:06;13.40;99.90
19220;DHT22;9744;49.364;7.484;2023-02-15T12:37:35;13.70;99.90
19220;DHT22;9744;49.364;7.484;2023-02-15T12:40:19;13.50;99.90
19220;DHT22;9744;49.364;7.484;2023-02-15T12:42:50;13.90;99.90
19220;DHT22;9744;49.364;7.484;2023-02-15T12:45:24;14.00;99.90
19220;DHT22;9744;49.364;7.484;2023-02-15T12:48:12;14.00;99.90
19220;DHT22;9744;49.364;7.484;2023-02-15T12:50:45;13.40;99.90
19220;DHT22;9744;49.364;7.484;2023-02-15T12:53:17;13.10;99.90
19220;DHT22;9744;49.364;7.484;2023-02-15T12:55:50;13.10;99.90
19220;DHT22;9744;49.364;7.484;2023-02-15T12:58:20;13.10;99.90
19220;DHT22;9744;49.364;7.484;2023-02-15T13:01:11;13.30;99.90
19220;DHT22;9744;49.364;7.484;2023-02-15T13:03:54;13.30;99.90
19220;DHT22;9744;49.364;7.484;2023-02-15T13:06:23;13.00;99.90
19220;DHT22;9744;49.364;7.484;2023-02-15T13:08:52;13.30;99.90
19220;DHT22;9744;49.364;7.484;2023-02-15T13:11:29;12.90;99.90
19220;DHT22;9744;49.364;7.484;2023-02-15T13:14:01;13.00;99.90
19220;DHT22;9744;49.364;7.484;2023-02-15T13:16:31;12.80;99.90
19220;DHT22;9744;49.364;7.484;2023-02-15T13:19:03;13.10;99.90
19220;DHT22;9744;49.364;7.484;2023-02-15T13:21:36;13.40;99.90
19220;DHT22;9744;49.364;7.484;2023-02-15T13:24:12;13.40;99.90
19220;DHT22;9744;49.364;7.484;2023-02-15T13:26:43;13.70;99.90
19220;DHT22;9744;49.364;7.484;2023-02-15T13:29:17;13.80;99.90
19220;DHT22;9744;49.364;7.484;2023-02-15T13:31:46;13.50;99.90
19220;DHT22;9744;49.364;7.484;2023-02-15T13:34:16;13.40;99.90
19220;DHT22;9744;49.364;7.484;2023-02-15T13:36:51;13.70;99.90
19220;DHT22;9744;49.364;7.484;2023-02-15T13:39:26;13.90;99.90
19220;DHT22;9744;49.364;7.484;2023-02-15T13:42:00;13.70;99.90
19220;DHT22;9744;49.364;7.484;2023-02-15T13:44:45;13.60;99.90
19220;DHT22;9744;49.364;7.484;2023-02-15T13:47:22;13.50;99.90
19220;DHT22;9744;49.364;7.484;2023-02-15T13:50:05;13.70;99.90
19220;DHT22;9744;49.364;7.484;2023-02-15T13:52:45;13.70;99.90
19220;DHT22;9744;49.364;7.484;2023-02-15T13:55:36;13.70;99.90
19220;DHT22;9744;49.364;7.484;2023-02-15T13:58:41;13.80;99.90
19220;DHT22;9744;49.364;7.484;2023-02-15T14:01:19;13.70;99.90
19220;DHT22;9744;49.364;7.484;2023-02-15T14:04:17;13.90;99.90
19220;DHT22;9744;49.364;7.484;2023-02-15T14:09:57;14.60;99.90
19220;DHT22;9744;49.364;7.484;2023-02-15T14:12:42;14.60;99.90
19220;DHT22;9744;49.364;7.484;2023-02-15T14:15:28;14.60;99.90
19220;DHT22;9744;49.364;7.484;2023-02-15T14:18:07;14.60;99.90
19220;DHT22;9744;49.364;7.484;2023-02-15T14:20:45;14.50;99.90
19220;DHT22;9744;49.364;7.484;2023-02-15T14:23:24;14.60;99.90
19220;DHT22;9744;49.364;7.484;2023-02-15T14:25:59;14.50;99.90
19220;DHT22;9744;49.364;7.484;2023-02-15T14:28:33;14.30;99.90
19220;DHT22;9744;49.364;7.484;2023-02-15T14:31:03;14.10;99.90
19220;DHT22;9744;49.364;7.484;2023-02-15T14:33:34;14.00;99.90
19220;DHT22;9744;49.364;7.484;2023-02-15T14:36:06;13.90;99.90
19220;DHT22;9744;49.364;7.484;2023-02-15T14:38:50;14.20;99.90
19220;DHT22;9744;49.364;7.484;2023-02-15T14:41:23;14.30;99.90
19220;DHT22;9744;49.364;7.484;2023-02-15T14:43:58;14.30;99.90
19220;DHT22;9744;49.364;7.484;2023-02-15T14:46:31;14.30;99.90
19220;DHT22;9744;49.364;7.484;2023-02-15T14:49:06;14.40;99.90
19220;DHT22;9744;49.364;7.484;2023-02-15T14:51:59;14.50;99.90
19220;DHT22;9744;49.364;7.484;2023-02-15T14:54:57;14.40;99.90
19220;DHT22;9744;49.364;7.484;2023-02-15T14:57:31;14.30;99.90
19220;DHT22;9744;49.364;7.484;2023-02-15T15:00:00;14.10;99.90
19220;DHT22;9744;49.364;7.484;2023-02-15T15:02:45;13.80;99.90
19220;DHT22;9744;49.364;7.484;2023-02-15T15:05:19;13.90;99.90
19220;DHT22;9744;49.364;7.484;2023-02-15T15:07:49;13.60;99.90
19220;DHT22;9744;49.364;7.484;2023-02-15T15:10:41;13.80;99.90
19220;DHT22;9744;49.364;7.484;2023-02-15T15:13:38;13.80;99.90
19220;DHT22;9744;49.364;7.484;2023-02-15T15:16:45;13.90;99.90
19220;DHT22;9744;49.364;7.484;2023-02-15T15:22:22;13.40;99.90
19220;DHT22;9744;49.364;7.484;2023-02-15T15:24:52;13.20;99.90
19220;DHT22;9744;49.364;7.484;2023-02-15T15:27:48;13.10;99.90
19220;DHT22;9744;49.364;7.484;2023-02-15T15:30:56;13.00;99.90
19220;DHT22;9744;49.364;7.484;2023-02-15T15:33:46;12.90;99.90
19220;DHT22;9744;49.364;7.484;2023-02-15T15:42:49;12.50;99.90
19220;DHT22;9744;49.364;7.484;2023-02-15T15:48:32;12.50;99.90
19220;DHT22;9744;49.364;7.484;2023-02-15T15:51:09;12.70;99.90
19220;DHT22;9744;49.364;7.484;2023-02-15T15:53:40;12.90;99.90
19220;DHT22;9744;49.364;7.484;2023-02-15T15:56:13;13.00;99.90
19220;DHT22;9744;49.364;7.484;2023-02-15T15:58:44;12.90;99.90
19220;DHT22;9744;49.364;7.484;2023-02-15T16:01:13;12.80;99.90
19220;DHT22;9744;49.364;7.484;2023-02-15T16:03:51;12.70;99.90
19220;DHT22;9744;49.364;7.484;2023-02-15T16:06:29;12.60;99.90
19220;DHT22;9744;49.364;7.484;2023-02-15T16:08:57;12.60;99.90
19220;DHT22;9744;49.364;7.484;2023-02-15T16:11:27;12.50;99.90
19220;DHT22;9744;49.364;7.484;2023-02-15T16:13:55;12.30;99.90
19220;DHT22;9744;49.364;7.484;2023-02-15T16:16:26;12.00;99.90
19220;DHT22;9744;49.364;7.484;2023-02-15T16:18:56;11.80;99.90
19220;DHT22;9744;49.364;7.484;2023-02-15T16:21:29;11.70;99.90
19220;DHT22;9744;49.364;7.484;2023-02-15T16:24:25;11.60;99.90
19220;DHT22;9744;49.364;7.484;2023-02-15T16:29:44;11.40;99.90
19220;DHT22;9744;49.364;7.484;2023-02-15T16:32:18;11.40;99.90
19220;DHT22;9744;49.364;7.484;2023-02-15T16:34:54;11.30;99.90
19220;DHT22;9744;49.364;7.484;2023-02-15T16:37:24;11.10;99.90
19220;DHT22;9744;49.364;7.484;2023-02-15T16:39:53;10.80;99.90
19220;DHT22;9744;49.364;7.484;2023-02-15T16:42:22;10.60;99.90
19220;DHT22;9744;49.364;7.484;2023-02-15T16:44:51;10.40;99.90
19220;DHT22;9744;49.364;7.484;2023-02-15T16:47:23;10.20;99.90
19220;DHT22;9744;49.364;7.484;2023-02-15T16:49:55;10.10;99.90
19220;DHT22;9744;49.364;7.484;2023-02-15T16:52:25;10.00;99.90
19220;DHT22;9744;49.364;7.484;2023-02-15T16:54:56;9.70;99.90
19220;DHT22;9744;49.364;7.484;2023-02-15T16:57:26;9.60;99.90